Strona główna
METAR-TAF:

METAR-TAF

Lotnisko :

Norwood Memorial Airport

Norwood, Massachusetts, Stany Zjednoczone

Szerokość geograficzna: 42-11-27N, Długość geograficzna: 071-10-26W, wysokość: 15 m

Aktualna obserwacja pogody

Raport powstał 12 minut temu, godzina 08:53 UTC
Wiatr 6 kt z kierunków zmiennych
Temperatura 21°C
Wilgotność 83%
Ciśnienie 1019 hPa
Widzialność: 16.1 km
Przerywane chmury na wysokości 1900 ft
Zachmurzenie całkowite na wysokości 2300 ft

METAR: KOWD 200853Z AUTO VRB06KT 10SM BKN019 OVC023 21/18 A3009 RMK AO2 SLP190 T02060178 50000

czas: 05:05 (09:05 UTC)


TAF: brakujący

Obserwacja i prognoza pogody dla ponad 4000 lotnisk (raport METAR i TAF).

Dostępne stacje oznaczono żółtymi i czerwonymi punktami na mapie.

Najedź kursorem aby zobaczyć nazwę stacji.

Kliknij aby zobaczyć obserwacje i prognozy pogody.

Aby zmienić mapę: kliknij na zielony przycisk z czarnym krzyżykiem, aby powiększyć; na zielony przycisk z myślnikiem, aby pomniejszyć; na zielone strzałki, aby przejść do map sąsiednich.


METAR-TAF: